sensor_id;sensor_type;location;lat;lon;timestamp;P1;durP1;ratioP1;P2;durP2;ratioP2
50757;SDS011;36732;47.980;11.652;2024-02-14T00:01:06;2.22;;;1.20;;
50757;SDS011;36732;47.980;11.652;2024-02-14T00:03:34;2.05;;;1.02;;
50757;SDS011;36732;47.980;11.652;2024-02-14T00:06:01;3.40;;;1.30;;
50757;SDS011;36732;47.980;11.652;2024-02-14T00:08:29;1.77;;;0.90;;
50757;SDS011;36732;47.980;11.652;2024-02-14T00:10:55;2.15;;;0.80;;
50757;SDS011;36732;47.980;11.652;2024-02-14T00:13:20;1.92;;;0.82;;
50757;SDS011;36732;47.980;11.652;2024-02-14T00:15:46;1.02;;;0.63;;
50757;SDS011;36732;47.980;11.652;2024-02-14T00:18:12;1.33;;;0.95;;
50757;SDS011;36732;47.980;11.652;2024-02-14T00:20:40;1.65;;;0.82;;
50757;SDS011;36732;47.980;11.652;2024-02-14T00:23:06;2.47;;;0.98;;
50757;SDS011;36732;47.980;11.652;2024-02-14T00:25:31;1.02;;;0.60;;
50757;SDS011;36732;47.980;11.652;2024-02-14T00:27:57;1.02;;;0.80;;
50757;SDS011;36732;47.980;11.652;2024-02-14T00:30:26;0.90;;;0.70;;
50757;SDS011;36732;47.980;11.652;2024-02-14T00:32:52;1.40;;;0.88;;
50757;SDS011;36732;47.980;11.652;2024-02-14T00:35:17;1.75;;;0.80;;
50757;SDS011;36732;47.980;11.652;2024-02-14T00:37:43;1.00;;;0.73;;
50757;SDS011;36732;47.980;11.652;2024-02-14T00:40:09;1.30;;;0.98;;
50757;SDS011;36732;47.980;11.652;2024-02-14T00:42:36;1.60;;;0.80;;
50757;SDS011;36732;47.980;11.652;2024-02-14T00:45:02;0.77;;;0.70;;
50757;SDS011;36732;47.980;11.652;2024-02-14T00:47:28;1.15;;;0.80;;
50757;SDS011;36732;47.980;11.652;2024-02-14T00:49:53;1.42;;;0.63;;
50757;SDS011;36732;47.980;11.652;2024-02-14T00:52:19;1.48;;;0.70;;
50757;SDS011;36732;47.980;11.652;2024-02-14T00:54:46;1.17;;;0.77;;
50757;SDS011;36732;47.980;11.652;2024-02-14T00:57:12;0.80;;;0.77;;
50757;SDS011;36732;47.980;11.652;2024-02-14T00:59:38;0.98;;;0.88;;
50757;SDS011;36732;47.980;11.652;2024-02-14T01:02:04;1.25;;;0.70;;
50757;SDS011;36732;47.980;11.652;2024-02-14T01:04:29;1.25;;;0.70;;
50757;SDS011;36732;47.980;11.652;2024-02-14T01:06:55;1.35;;;0.70;;
50757;SDS011;36732;47.980;11.652;2024-02-14T01:09:21;1.10;;;0.70;;
50757;SDS011;36732;47.980;11.652;2024-02-14T01:11:46;1.00;;;0.70;;
50757;SDS011;36732;47.980;11.652;2024-02-14T01:14:13;1.75;;;1.00;;
50757;SDS011;36732;47.980;11.652;2024-02-14T01:16:43;2.55;;;1.00;;
50757;SDS011;36732;47.980;11.652;2024-02-14T01:19:10;1.13;;;0.60;;
50757;SDS011;36732;47.980;11.652;2024-02-14T01:21:36;1.77;;;1.08;;
50757;SDS011;36732;47.980;11.652;2024-02-14T01:24:02;1.02;;;0.80;;
50757;SDS011;36732;47.980;11.652;2024-02-14T01:26:30;0.70;;;0.70;;
50757;SDS011;36732;47.980;11.652;2024-02-14T01:28:57;1.52;;;0.70;;
50757;SDS011;36732;47.980;11.652;2024-02-14T01:31:22;1.27;;;0.70;;
50757;SDS011;36732;47.980;11.652;2024-02-14T01:33:48;2.30;;;0.75;;
50757;SDS011;36732;47.980;11.652;2024-02-14T01:36:14;0.60;;;0.60;;
50757;SDS011;36732;47.980;11.652;2024-02-14T01:38:40;0.80;;;0.70;;
50757;SDS011;36732;47.980;11.652;2024-02-14T01:41:07;1.55;;;0.65;;
50757;SDS011;36732;47.980;11.652;2024-02-14T01:43:33;0.82;;;0.63;;
50757;SDS011;36732;47.980;11.652;2024-02-14T01:46:02;0.98;;;0.82;;
50757;SDS011;36732;47.980;11.652;2024-02-14T01:48:35;0.93;;;0.70;;
50757;SDS011;36732;47.980;11.652;2024-02-14T01:51:04;0.40;;;0.40;;
50757;SDS011;36732;47.980;11.652;2024-02-14T01:53:33;0.75;;;0.50;;
50757;SDS011;36732;47.980;11.652;2024-02-14T01:56:01;0.98;;;0.70;;
50757;SDS011;36732;47.980;11.652;2024-02-14T01:58:27;0.98;;;0.68;;
50757;SDS011;36732;47.980;11.652;2024-02-14T02:00:54;1.20;;;0.70;;
50757;SDS011;36732;47.980;11.652;2024-02-14T02:03:25;1.10;;;0.47;;
50757;SDS011;36732;47.980;11.652;2024-02-14T02:05:51;0.70;;;0.50;;
50757;SDS011;36732;47.980;11.652;2024-02-14T02:08:18;0.57;;;0.57;;
50757;SDS011;36732;47.980;11.652;2024-02-14T02:10:44;0.70;;;0.50;;
50757;SDS011;36732;47.980;11.652;2024-02-14T02:13:10;0.43;;;0.43;;
50757;SDS011;36732;47.980;11.652;2024-02-14T02:15:36;0.60;;;0.45;;
50757;SDS011;36732;47.980;11.652;2024-02-14T02:18:03;1.85;;;0.70;;
50757;SDS011;36732;47.980;11.652;2024-02-14T02:20:31;1.33;;;0.50;;
50757;SDS011;36732;47.980;11.652;2024-02-14T02:22:57;1.13;;;0.60;;
50757;SDS011;36732;47.980;11.652;2024-02-14T02:25:24;0.63;;;0.45;;
50757;SDS011;36732;47.980;11.652;2024-02-14T02:27:52;0.47;;;0.30;;
50757;SDS011;36732;47.980;11.652;2024-02-14T02:30:24;0.47;;;0.40;;
50757;SDS011;36732;47.980;11.652;2024-02-14T02:32:50;0.63;;;0.50;;
50757;SDS011;36732;47.980;11.652;2024-02-14T02:35:16;1.38;;;0.88;;
50757;SDS011;36732;47.980;11.652;2024-02-14T02:37:44;0.63;;;0.52;;
50757;SDS011;36732;47.980;11.652;2024-02-14T02:40:12;1.67;;;0.60;;
50757;SDS011;36732;47.980;11.652;2024-02-14T02:42:39;1.80;;;0.73;;
50757;SDS011;36732;47.980;11.652;2024-02-14T02:45:05;1.27;;;0.70;;
50757;SDS011;36732;47.980;11.652;2024-02-14T02:47:31;1.05;;;0.50;;
50757;SDS011;36732;47.980;11.652;2024-02-14T02:49:57;0.90;;;0.60;;
50757;SDS011;36732;47.980;11.652;2024-02-14T02:52:26;0.73;;;0.52;;
50757;SDS011;36732;47.980;11.652;2024-02-14T02:54:52;0.70;;;0.52;;
50757;SDS011;36732;47.980;11.652;2024-02-14T02:57:19;0.73;;;0.63;;
50757;SDS011;36732;47.980;11.652;2024-02-14T02:59:44;0.95;;;0.40;;
50757;SDS011;36732;47.980;11.652;2024-02-14T03:02:13;0.82;;;0.50;;
50757;SDS011;36732;47.980;11.652;2024-02-14T03:04:39;1.15;;;0.60;;
50757;SDS011;36732;47.980;11.652;2024-02-14T03:07:06;0.95;;;0.47;;
50757;SDS011;36732;47.980;11.652;2024-02-14T03:09:34;0.50;;;0.43;;
50757;SDS011;36732;47.980;11.652;2024-02-14T03:12:01;0.88;;;0.45;;
50757;SDS011;36732;47.980;11.652;2024-02-14T03:14:31;0.43;;;0.43;;
50757;SDS011;36732;47.980;11.652;2024-02-14T03:16:58;0.60;;;0.50;;
50757;SDS011;36732;47.980;11.652;2024-02-14T03:19:25;0.50;;;0.43;;
50757;SDS011;36732;47.980;11.652;2024-02-14T03:21:52;0.65;;;0.45;;
50757;SDS011;36732;47.980;11.652;2024-02-14T03:24:19;1.88;;;0.60;;
50757;SDS011;36732;47.980;11.652;2024-02-14T03:26:45;0.60;;;0.50;;
50757;SDS011;36732;47.980;11.652;2024-02-14T03:29:11;0.82;;;0.68;;
50757;SDS011;36732;47.980;11.652;2024-02-14T03:31:37;2.25;;;0.80;;
50757;SDS011;36732;47.980;11.652;2024-02-14T03:34:03;1.60;;;0.63;;
50757;SDS011;36732;47.980;11.652;2024-02-14T03:36:30;0.40;;;0.40;;
50757;SDS011;36732;47.980;11.652;2024-02-14T03:38:57;0.65;;;0.50;;
50757;SDS011;36732;47.980;11.652;2024-02-14T03:41:24;0.40;;;0.30;;
50757;SDS011;36732;47.980;11.652;2024-02-14T03:43:50;0.90;;;0.55;;
50757;SDS011;36732;47.980;11.652;2024-02-14T03:46:17;1.70;;;0.70;;
50757;SDS011;36732;47.980;11.652;2024-02-14T03:48:46;0.82;;;0.60;;
50757;SDS011;36732;47.980;11.652;2024-02-14T03:51:12;0.52;;;0.40;;
50757;SDS011;36732;47.980;11.652;2024-02-14T03:53:38;1.20;;;0.68;;
50757;SDS011;36732;47.980;11.652;2024-02-14T03:56:04;0.80;;;0.75;;
50757;SDS011;36732;47.980;11.652;2024-02-14T03:58:32;0.73;;;0.50;;
50757;SDS011;36732;47.980;11.652;2024-02-14T04:01:02;2.38;;;0.70;;
50757;SDS011;36732;47.980;11.652;2024-02-14T04:03:28;0.90;;;0.70;;
50757;SDS011;36732;47.980;11.652;2024-02-14T04:05:54;1.52;;;0.75;;
50757;SDS011;36732;47.980;11.652;2024-02-14T04:08:20;2.42;;;0.70;;
50757;SDS011;36732;47.980;11.652;2024-02-14T04:10:47;1.30;;;0.75;;
50757;SDS011;36732;47.980;11.652;2024-02-14T04:13:15;2.75;;;0.82;;
50757;SDS011;36732;47.980;11.652;2024-02-14T04:15:41;0.80;;;0.60;;
50757;SDS011;36732;47.980;11.652;2024-02-14T04:18:11;1.63;;;0.57;;
50757;SDS011;36732;47.980;11.652;2024-02-14T04:20:37;1.83;;;0.90;;
50757;SDS011;36732;47.980;11.652;2024-02-14T04:23:03;1.75;;;0.68;;
50757;SDS011;36732;47.980;11.652;2024-02-14T04:25:31;0.95;;;0.65;;
50757;SDS011;36732;47.980;11.652;2024-02-14T04:27:58;2.42;;;0.55;;
50757;SDS011;36732;47.980;11.652;2024-02-14T04:30:24;0.93;;;0.60;;
50757;SDS011;36732;47.980;11.652;2024-02-14T04:32:50;1.88;;;0.50;;
50757;SDS011;36732;47.980;11.652;2024-02-14T04:35:17;1.58;;;0.80;;
50757;SDS011;36732;47.980;11.652;2024-02-14T04:37:45;1.48;;;0.60;;
50757;SDS011;36732;47.980;11.652;2024-02-14T04:40:12;1.08;;;0.68;;
50757;SDS011;36732;47.980;11.652;2024-02-14T04:42:39;1.15;;;0.60;;
50757;SDS011;36732;47.980;11.652;2024-02-14T04:45:07;1.40;;;0.70;;
50757;SDS011;36732;47.980;11.652;2024-02-14T04:47:33;0.90;;;0.60;;
50757;SDS011;36732;47.980;11.652;2024-02-14T04:49:59;1.23;;;0.60;;
50757;SDS011;36732;47.980;11.652;2024-02-14T04:52:25;1.38;;;0.68;;
50757;SDS011;36732;47.980;11.652;2024-02-14T04:54:52;1.73;;;0.73;;
50757;SDS011;36732;47.980;11.652;2024-02-14T04:57:17;0.65;;;0.50;;
50757;SDS011;36732;47.980;11.652;2024-02-14T04:59:45;1.67;;;0.70;;
50757;SDS011;36732;47.980;11.652;2024-02-14T05:02:10;2.13;;;1.00;;
50757;SDS011;36732;47.980;11.652;2024-02-14T05:04:36;2.13;;;0.75;;
50757;SDS011;36732;47.980;11.652;2024-02-14T05:07:05;2.28;;;0.50;;
50757;SDS011;36732;47.980;11.652;2024-02-14T05:09:31;0.65;;;0.50;;
50757;SDS011;36732;47.980;11.652;2024-02-14T05:11:57;2.85;;;1.08;;
50757;SDS011;36732;47.980;11.652;2024-02-14T05:14:23;1.15;;;0.70;;
50757;SDS011;36732;47.980;11.652;2024-02-14T05:16:48;3.08;;;0.80;;
50757;SDS011;36732;47.980;11.652;2024-02-14T05:19:14;3.08;;;0.90;;
50757;SDS011;36732;47.980;11.652;2024-02-14T05:21:40;1.85;;;1.02;;
50757;SDS011;36732;47.980;11.652;2024-02-14T05:24:06;6.38;;;1.10;;
50757;SDS011;36732;47.980;11.652;2024-02-14T05:26:32;1.33;;;0.95;;
50757;SDS011;36732;47.980;11.652;2024-02-14T05:28:58;1.42;;;0.98;;
50757;SDS011;36732;47.980;11.652;2024-02-14T05:31:24;1.70;;;0.98;;
50757;SDS011;36732;47.980;11.652;2024-02-14T05:33:50;2.30;;;0.82;;
50757;SDS011;36732;47.980;11.652;2024-02-14T05:36:15;1.30;;;0.80;;
50757;SDS011;36732;47.980;11.652;2024-02-14T05:38:42;2.22;;;1.27;;
50757;SDS011;36732;47.980;11.652;2024-02-14T05:41:08;1.42;;;0.98;;
50757;SDS011;36732;47.980;11.652;2024-02-14T05:43:34;1.17;;;0.90;;
50757;SDS011;36732;47.980;11.652;2024-02-14T05:46:00;2.17;;;0.70;;
50757;SDS011;36732;47.980;11.652;2024-02-14T05:48:26;1.83;;;0.80;;
50757;SDS011;36732;47.980;11.652;2024-02-14T05:50:51;1.73;;;0.70;;
50757;SDS011;36732;47.980;11.652;2024-02-14T05:53:17;2.10;;;0.73;;
50757;SDS011;36732;47.980;11.652;2024-02-14T05:55:43;2.17;;;0.90;;
50757;SDS011;36732;47.980;11.652;2024-02-14T05:58:09;1.65;;;0.90;;
50757;SDS011;36732;47.980;11.652;2024-02-14T06:00:35;1.83;;;0.68;;
50757;SDS011;36732;47.980;11.652;2024-02-14T06:03:00;2.08;;;1.15;;
50757;SDS011;36732;47.980;11.652;2024-02-14T06:05:27;1.20;;;0.82;;
50757;SDS011;36732;47.980;11.652;2024-02-14T06:07:52;1.50;;;0.80;;
50757;SDS011;36732;47.980;11.652;2024-02-14T06:10:18;2.42;;;0.80;;
50757;SDS011;36732;47.980;11.652;2024-02-14T06:12:44;1.60;;;0.90;;
50757;SDS011;36732;47.980;11.652;2024-02-14T06:15:10;3.67;;;2.00;;
50757;SDS011;36732;47.980;11.652;2024-02-14T06:17:35;5.90;;;2.95;;
50757;SDS011;36732;47.980;11.652;2024-02-14T06:20:01;4.22;;;2.28;;
50757;SDS011;36732;47.980;11.652;2024-02-14T06:22:32;1.98;;;1.35;;
50757;SDS011;36732;47.980;11.652;2024-02-14T06:24:59;3.20;;;1.42;;
50757;SDS011;36732;47.980;11.652;2024-02-14T06:27:25;3.00;;;0.98;;
50757;SDS011;36732;47.980;11.652;2024-02-14T06:29:51;1.02;;;0.85;;
50757;SDS011;36732;47.980;11.652;2024-02-14T06:32:18;3.35;;;1.20;;
50757;SDS011;36732;47.980;11.652;2024-02-14T06:34:44;1.90;;;1.02;;
50757;SDS011;36732;47.980;11.652;2024-02-14T06:37:09;4.93;;;2.08;;
50757;SDS011;36732;47.980;11.652;2024-02-14T06:39:35;5.18;;;2.83;;
50757;SDS011;36732;47.980;11.652;2024-02-14T06:42:01;6.97;;;4.47;;
50757;SDS011;36732;47.980;11.652;2024-02-14T06:44:26;11.95;;;6.32;;
50757;SDS011;36732;47.980;11.652;2024-02-14T06:46:52;16.52;;;7.18;;
50757;SDS011;36732;47.980;11.652;2024-02-14T06:49:18;15.93;;;7.50;;
50757;SDS011;36732;47.980;11.652;2024-02-14T06:51:43;16.52;;;7.82;;
50757;SDS011;36732;47.980;11.652;2024-02-14T06:54:10;14.07;;;7.60;;
50757;SDS011;36732;47.980;11.652;2024-02-14T06:56:37;12.90;;;6.35;;
50757;SDS011;36732;47.980;11.652;2024-02-14T06:59:03;11.48;;;6.57;;
50757;SDS011;36732;47.980;11.652;2024-02-14T07:01:32;7.47;;;4.10;;
50757;SDS011;36732;47.980;11.652;2024-02-14T07:03:58;4.72;;;2.88;;
50757;SDS011;36732;47.980;11.652;2024-02-14T07:06:24;6.72;;;2.22;;
50757;SDS011;36732;47.980;11.652;2024-02-14T07:08:49;5.07;;;1.85;;
50757;SDS011;36732;47.980;11.652;2024-02-14T07:11:16;1.58;;;0.98;;
50757;SDS011;36732;47.980;11.652;2024-02-14T07:13:42;2.42;;;1.02;;
50757;SDS011;36732;47.980;11.652;2024-02-14T07:16:07;1.85;;;1.10;;
50757;SDS011;36732;47.980;11.652;2024-02-14T07:18:33;4.50;;;1.23;;
50757;SDS011;36732;47.980;11.652;2024-02-14T07:20:59;1.15;;;0.88;;
50757;SDS011;36732;47.980;11.652;2024-02-14T07:23:26;1.25;;;0.95;;
50757;SDS011;36732;47.980;11.652;2024-02-14T07:25:52;2.90;;;1.35;;
50757;SDS011;36732;47.980;11.652;2024-02-14T07:28:18;2.92;;;1.00;;
50757;SDS011;36732;47.980;11.652;2024-02-14T07:30:44;2.03;;;1.30;;
50757;SDS011;36732;47.980;11.652;2024-02-14T07:33:09;3.20;;;1.02;;
50757;SDS011;36732;47.980;11.652;2024-02-14T07:35:36;2.50;;;1.30;;
50757;SDS011;36732;47.980;11.652;2024-02-14T07:38:02;4.63;;;0.80;;
50757;SDS011;36732;47.980;11.652;2024-02-14T07:40:28;0.95;;;0.73;;
50757;SDS011;36732;47.980;11.652;2024-02-14T07:42:56;1.23;;;0.80;;
50757;SDS011;36732;47.980;11.652;2024-02-14T07:45:22;1.33;;;1.00;;
50757;SDS011;36732;47.980;11.652;2024-02-14T07:47:51;1.65;;;1.40;;
50757;SDS011;36732;47.980;11.652;2024-02-14T07:50:17;2.38;;;1.10;;
50757;SDS011;36732;47.980;11.652;2024-02-14T07:52:43;2.97;;;1.40;;
50757;SDS011;36732;47.980;11.652;2024-02-14T07:55:09;2.17;;;1.30;;
50757;SDS011;36732;47.980;11.652;2024-02-14T07:57:37;2.15;;;1.30;;
50757;SDS011;36732;47.980;11.652;2024-02-14T08:00:06;3.30;;;1.10;;
50757;SDS011;36732;47.980;11.652;2024-02-14T08:02:33;2.13;;;0.98;;
50757;SDS011;36732;47.980;11.652;2024-02-14T08:05:00;1.38;;;0.77;;
50757;SDS011;36732;47.980;11.652;2024-02-14T08:07:26;1.58;;;1.08;;
50757;SDS011;36732;47.980;11.652;2024-02-14T08:09:52;1.25;;;0.60;;
50757;SDS011;36732;47.980;11.652;2024-02-14T08:12:18;1.25;;;0.60;;
50757;SDS011;36732;47.980;11.652;2024-02-14T08:14:44;2.40;;;0.80;;
50757;SDS011;36732;47.980;11.652;2024-02-14T08:17:09;3.22;;;0.80;;
50757;SDS011;36732;47.980;11.652;2024-02-14T08:19:35;1.45;;;0.60;;
50757;SDS011;36732;47.980;11.652;2024-02-14T08:22:01;2.75;;;0.57;;
50757;SDS011;36732;47.980;11.652;2024-02-14T08:24:27;2.10;;;0.77;;
50757;SDS011;36732;47.980;11.652;2024-02-14T08:26:53;3.13;;;0.98;;
50757;SDS011;36732;47.980;11.652;2024-02-14T08:29:20;1.85;;;0.60;;
50757;SDS011;36732;47.980;11.652;2024-02-14T08:31:45;2.47;;;1.02;;
50757;SDS011;36732;47.980;11.652;2024-02-14T08:34:12;0.82;;;0.60;;
50757;SDS011;36732;47.980;11.652;2024-02-14T08:36:39;1.00;;;0.50;;
50757;SDS011;36732;47.980;11.652;2024-02-14T08:39:06;0.57;;;0.50;;
50757;SDS011;36732;47.980;11.652;2024-02-14T08:41:34;1.88;;;1.08;;
50757;SDS011;36732;47.980;11.652;2024-02-14T08:44:06;3.03;;;0.85;;
50757;SDS011;36732;47.980;11.652;2024-02-14T08:46:32;1.30;;;0.85;;
50757;SDS011;36732;47.980;11.652;2024-02-14T08:48:59;3.03;;;0.80;;
50757;SDS011;36732;47.980;11.652;2024-02-14T08:51:27;2.28;;;1.00;;
50757;SDS011;36732;47.980;11.652;2024-02-14T08:53:53;1.50;;;0.80;;
50757;SDS011;36732;47.980;11.652;2024-02-14T08:56:22;1.73;;;1.08;;
50757;SDS011;36732;47.980;11.652;2024-02-14T08:58:48;2.67;;;1.40;;
50757;SDS011;36732;47.980;11.652;2024-02-14T09:01:14;1.92;;;1.10;;
50757;SDS011;36732;47.980;11.652;2024-02-14T09:03:40;2.22;;;1.08;;
50757;SDS011;36732;47.980;11.652;2024-02-14T09:06:12;0.82;;;0.77;;
50757;SDS011;36732;47.980;11.652;2024-02-14T09:08:39;1.42;;;0.93;;
50757;SDS011;36732;47.980;11.652;2024-02-14T09:11:06;1.58;;;0.88;;
50757;SDS011;36732;47.980;11.652;2024-02-14T09:13:31;0.70;;;0.50;;
50757;SDS011;36732;47.980;11.652;2024-02-14T09:15:57;1.60;;;1.00;;
50757;SDS011;36732;47.980;11.652;2024-02-14T09:18:23;1.77;;;0.65;;
50757;SDS011;36732;47.980;11.652;2024-02-14T09:20:50;1.60;;;0.90;;
50757;SDS011;36732;47.980;11.652;2024-02-14T09:23:17;1.20;;;0.68;;
50757;SDS011;36732;47.980;11.652;2024-02-14T09:25:47;0.80;;;0.60;;
50757;SDS011;36732;47.980;11.652;2024-02-14T09:28:15;1.05;;;0.77;;
50757;SDS011;36732;47.980;11.652;2024-02-14T09:30:41;0.82;;;0.60;;
50757;SDS011;36732;47.980;11.652;2024-02-14T09:33:06;1.55;;;0.70;;
50757;SDS011;36732;47.980;11.652;2024-02-14T09:35:32;0.85;;;0.50;;
50757;SDS011;36732;47.980;11.652;2024-02-14T09:38:00;0.50;;;0.47;;
50757;SDS011;36732;47.980;11.652;2024-02-14T09:40:25;1.10;;;0.60;;
50757;SDS011;36732;47.980;11.652;2024-02-14T09:42:55;0.88;;;0.70;;
50757;SDS011;36732;47.980;11.652;2024-02-14T09:45:25;1.63;;;0.57;;
50757;SDS011;36732;47.980;11.652;2024-02-14T09:47:52;1.67;;;0.70;;
50757;SDS011;36732;47.980;11.652;2024-02-14T09:50:19;2.20;;;0.82;;
50757;SDS011;36732;47.980;11.652;2024-02-14T09:52:46;1.00;;;0.60;;
50757;SDS011;36732;47.980;11.652;2024-02-14T09:55:16;0.75;;;0.52;;
50757;SDS011;36732;47.980;11.652;2024-02-14T09:57:42;1.10;;;0.57;;
50757;SDS011;36732;47.980;11.652;2024-02-14T10:00:12;0.95;;;0.68;;
50757;SDS011;36732;47.980;11.652;2024-02-14T10:02:41;1.42;;;0.70;;
50757;SDS011;36732;47.980;11.652;2024-02-14T10:05:07;1.02;;;0.60;;
50757;SDS011;36732;47.980;11.652;2024-02-14T10:07:40;0.77;;;0.50;;
50757;SDS011;36732;47.980;11.652;2024-02-14T10:10:06;1.50;;;0.93;;
50757;SDS011;36732;47.980;11.652;2024-02-14T10:12:32;0.63;;;0.60;;
50757;SDS011;36732;47.980;11.652;2024-02-14T10:14:58;2.08;;;0.70;;
50757;SDS011;36732;47.980;11.652;2024-02-14T10:17:24;1.05;;;0.70;;
50757;SDS011;36732;47.980;11.652;2024-02-14T10:19:57;0.55;;;0.50;;
50757;SDS011;36732;47.980;11.652;2024-02-14T10:22:24;1.02;;;0.60;;
50757;SDS011;36732;47.980;11.652;2024-02-14T10:24:57;0.90;;;0.70;;
50757;SDS011;36732;47.980;11.652;2024-02-14T10:27:23;2.00;;;0.65;;
50757;SDS011;36732;47.980;11.652;2024-02-14T10:29:50;0.75;;;0.40;;
50757;SDS011;36732;47.980;11.652;2024-02-14T10:32:16;1.17;;;0.65;;
50757;SDS011;36732;47.980;11.652;2024-02-14T10:34:41;0.68;;;0.45;;
50757;SDS011;36732;47.980;11.652;2024-02-14T10:37:12;0.40;;;0.40;;
50757;SDS011;36732;47.980;11.652;2024-02-14T10:39:41;0.70;;;0.50;;
50757;SDS011;36732;47.980;11.652;2024-02-14T10:42:07;0.90;;;0.60;;
50757;SDS011;36732;47.980;11.652;2024-02-14T10:44:34;0.73;;;0.60;;
50757;SDS011;36732;47.980;11.652;2024-02-14T10:47:00;2.75;;;0.85;;
50757;SDS011;36732;47.980;11.652;2024-02-14T10:49:32;0.85;;;0.68;;
50757;SDS011;36732;47.980;11.652;2024-02-14T10:52:00;0.88;;;0.50;;
50757;SDS011;36732;47.980;11.652;2024-02-14T10:54:32;0.50;;;0.50;;
50757;SDS011;36732;47.980;11.652;2024-02-14T10:57:01;0.65;;;0.50;;
50757;SDS011;36732;47.980;11.652;2024-02-14T10:59:38;0.30;;;0.30;;
50757;SDS011;36732;47.980;11.652;2024-02-14T11:02:09;0.30;;;0.30;;
50757;SDS011;36732;47.980;11.652;2024-02-14T11:04:35;1.92;;;0.50;;
50757;SDS011;36732;47.980;11.652;2024-02-14T11:07:02;0.65;;;0.40;;
50757;SDS011;36732;47.980;11.652;2024-02-14T11:09:32;0.80;;;0.57;;
50757;SDS011;36732;47.980;11.652;2024-02-14T11:12:02;0.50;;;0.40;;
50757;SDS011;36732;47.980;11.652;2024-02-14T11:14:31;0.75;;;0.43;;
50757;SDS011;36732;47.980;11.652;2024-02-14T11:17:05;0.47;;;0.40;;
50757;SDS011;36732;47.980;11.652;2024-02-14T11:19:39;0.82;;;0.60;;
50757;SDS011;36732;47.980;11.652;2024-02-14T11:24:38;0.67;;;0.60;;
50757;SDS011;36732;47.980;11.652;2024-02-14T11:27:09;0.90;;;0.52;;
50757;SDS011;36732;47.980;11.652;2024-02-14T11:29:39;0.40;;;0.38;;
50757;SDS011;36732;47.980;11.652;2024-02-14T11:32:06;0.75;;;0.40;;
50757;SDS011;36732;47.980;11.652;2024-02-14T11:34:35;0.55;;;0.35;;
50757;SDS011;36732;47.980;11.652;2024-02-14T11:37:01;1.42;;;0.47;;
50757;SDS011;36732;47.980;11.652;2024-02-14T11:39:26;0.85;;;0.60;;
50757;SDS011;36732;47.980;11.652;2024-02-14T11:41:52;0.57;;;0.38;;
50757;SDS011;36732;47.980;11.652;2024-02-14T11:44:21;1.08;;;0.70;;
50757;SDS011;36732;47.980;11.652;2024-02-14T11:46:50;1.13;;;0.52;;
50757;SDS011;36732;47.980;11.652;2024-02-14T11:49:16;0.80;;;0.40;;
50757;SDS011;36732;47.980;11.652;2024-02-14T11:51:42;0.40;;;0.40;;
50757;SDS011;36732;47.980;11.652;2024-02-14T11:54:08;1.33;;;0.50;;
50757;SDS011;36732;47.980;11.652;2024-02-14T11:56:37;0.80;;;0.50;;
50757;SDS011;36732;47.980;11.652;2024-02-14T11:59:04;1.30;;;0.60;;
50757;SDS011;36732;47.980;11.652;2024-02-14T12:01:35;0.80;;;0.63;;
50757;SDS011;36732;47.980;11.652;2024-02-14T12:04:04;1.10;;;0.70;;
50757;SDS011;36732;47.980;11.652;2024-02-14T12:06:34;1.40;;;0.90;;
50757;SDS011;36732;47.980;11.652;2024-02-14T12:09:01;0.60;;;0.55;;
50757;SDS011;36732;47.980;11.652;2024-02-14T12:11:31;1.50;;;0.60;;
50757;SDS011;36732;47.980;11.652;2024-02-14T12:14:02;0.73;;;0.60;;
50757;SDS011;36732;47.980;11.652;2024-02-14T12:16:30;1.15;;;0.65;;
50757;SDS011;36732;47.980;11.652;2024-02-14T12:19:07;1.95;;;0.47;;
50757;SDS011;36732;47.980;11.652;2024-02-14T12:21:40;0.50;;;0.40;;
50757;SDS011;36732;47.980;11.652;2024-02-14T12:26:35;0.60;;;0.43;;
50757;SDS011;36732;47.980;11.652;2024-02-14T12:29:03;1.02;;;0.45;;
50757;SDS011;36732;47.980;11.652;2024-02-14T12:31:29;1.42;;;0.60;;
50757;SDS011;36732;47.980;11.652;2024-02-14T12:33:58;0.50;;;0.40;;
50757;SDS011;36732;47.980;11.652;2024-02-14T12:36:26;0.70;;;0.40;;
50757;SDS011;36732;47.980;11.652;2024-02-14T12:38:54;1.48;;;0.30;;
50757;SDS011;36732;47.980;11.652;2024-02-14T12:41:20;0.52;;;0.40;;
50757;SDS011;36732;47.980;11.652;2024-02-14T12:43:47;0.52;;;0.40;;
50757;SDS011;36732;47.980;11.652;2024-02-14T12:46:13;0.47;;;0.43;;
50757;SDS011;36732;47.980;11.652;2024-02-14T12:48:39;0.47;;;0.45;;
50757;SDS011;36732;47.980;11.652;2024-02-14T12:51:04;0.45;;;0.40;;
50757;SDS011;36732;47.980;11.652;2024-02-14T12:53:30;0.32;;;0.30;;
50757;SDS011;36732;47.980;11.652;2024-02-14T12:55:57;0.50;;;0.40;;
50757;SDS011;36732;47.980;11.652;2024-02-14T12:58:22;0.50;;;0.30;;
50757;SDS011;36732;47.980;11.652;2024-02-14T13:00:48;0.55;;;0.40;;
50757;SDS011;36732;47.980;11.652;2024-02-14T13:03:14;0.50;;;0.50;;
50757;SDS011;36732;47.980;11.652;2024-02-14T13:05:39;0.52;;;0.45;;
50757;SDS011;36732;47.980;11.652;2024-02-14T13:08:08;1.67;;;0.70;;
50757;SDS011;36732;47.980;11.652;2024-02-14T13:10:36;0.90;;;0.50;;
50757;SDS011;36732;47.980;11.652;2024-02-14T13:13:02;0.85;;;0.50;;
50757;SDS011;36732;47.980;11.652;2024-02-14T13:15:28;0.57;;;0.43;;
50757;SDS011;36732;47.980;11.652;2024-02-14T13:17:53;0.50;;;0.30;;
50757;SDS011;36732;47.980;11.652;2024-02-14T13:20:21;0.50;;;0.50;;
50757;SDS011;36732;47.980;11.652;2024-02-14T13:22:47;0.77;;;0.43;;
50757;SDS011;36732;47.980;11.652;2024-02-14T13:25:12;0.45;;;0.40;;
50757;SDS011;36732;47.980;11.652;2024-02-14T13:27:39;0.50;;;0.40;;
50757;SDS011;36732;47.980;11.652;2024-02-14T13:30:05;1.13;;;0.47;;
50757;SDS011;36732;47.980;11.652;2024-02-14T13:32:32;1.05;;;0.32;;
50757;SDS011;36732;47.980;11.652;2024-02-14T13:34:58;0.40;;;0.40;;
50757;SDS011;36732;47.980;11.652;2024-02-14T13:37:23;0.45;;;0.40;;
50757;SDS011;36732;47.980;11.652;2024-02-14T13:39:50;0.80;;;0.60;;
50757;SDS011;36732;47.980;11.652;2024-02-14T13:42:16;0.50;;;0.40;;
50757;SDS011;36732;47.980;11.652;2024-02-14T13:44:42;0.40;;;0.35;;
50757;SDS011;36732;47.980;11.652;2024-02-14T13:47:08;0.32;;;0.32;;
50757;SDS011;36732;47.980;11.652;2024-02-14T13:49:34;0.40;;;0.40;;
50757;SDS011;36732;47.980;11.652;2024-02-14T13:51:59;0.30;;;0.30;;
50757;SDS011;36732;47.980;11.652;2024-02-14T13:54:25;0.50;;;0.50;;
50757;SDS011;36732;47.980;11.652;2024-02-14T13:56:51;0.55;;;0.43;;
50757;SDS011;36732;47.980;11.652;2024-02-14T13:59:17;0.30;;;0.30;;
50757;SDS011;36732;47.980;11.652;2024-02-14T14:01:44;0.40;;;0.40;;
50757;SDS011;36732;47.980;11.652;2024-02-14T14:04:11;0.65;;;0.47;;
50757;SDS011;36732;47.980;11.652;2024-02-14T14:06:37;0.30;;;0.30;;
50757;SDS011;36732;47.980;11.652;2024-02-14T14:09:04;0.50;;;0.40;;
50757;SDS011;36732;47.980;11.652;2024-02-14T14:11:33;1.17;;;0.52;;
50757;SDS011;36732;47.980;11.652;2024-02-14T14:13:59;0.88;;;0.40;;
50757;SDS011;36732;47.980;11.652;2024-02-14T14:16:26;0.60;;;0.40;;
50757;SDS011;36732;47.980;11.652;2024-02-14T14:18:51;2.30;;;0.40;;
50757;SDS011;36732;47.980;11.652;2024-02-14T14:21:17;0.88;;;0.40;;
50757;SDS011;36732;47.980;11.652;2024-02-14T14:23:43;0.70;;;0.47;;
50757;SDS011;36732;47.980;11.652;2024-02-14T14:26:09;0.30;;;0.22;;
50757;SDS011;36732;47.980;11.652;2024-02-14T14:28:35;0.28;;;0.28;;
50757;SDS011;36732;47.980;11.652;2024-02-14T14:31:01;0.32;;;0.30;;
50757;SDS011;36732;47.980;11.652;2024-02-14T14:33:27;1.20;;;0.38;;
50757;SDS011;36732;47.980;11.652;2024-02-14T14:35:53;0.75;;;0.30;;